Time,TemperatureF,DewpointF,PressureIn,WindDirection,WindDirectionDegrees,WindSpeedMPH,WindSpeedGustMPH,Humidity,HourlyPrecipIn,Conditions,Clouds,dailyrainin,SoftwareType,DateUTC
2013-09-06 00:00:00,83.0,75.0,30.07,North,0,0.0,0.0,75,-99.99,,,-99.99,,2013-09-06 05:00:00,
2013-09-06 00:42:00,83.0,75.0,30.07,North,0,0.0,0.0,75,-99.99,,,-99.99,,2013-09-06 05:42:00,
2013-09-06 00:52:00,83.0,75.0,30.07,North,0,0.0,0.0,75,-99.99,,,-99.99,,2013-09-06 05:52:00,
2013-09-06 01:00:00,83.0,75.0,30.06,North,0,0.0,0.0,75,-99.99,,,-99.99,,2013-09-06 06:00:00,
2013-09-06 01:42:00,83.0,75.0,30.06,North,0,0.0,0.0,75,-99.99,,,-99.99,,2013-09-06 06:42:00,
2013-09-06 01:52:00,83.0,75.0,30.06,North,0,0.0,0.0,75,-99.99,,,-99.99,,2013-09-06 06:52:00,
2013-09-06 02:00:00,82.0,78.0,30.04,East,80,9.0,10.0,86,-99.99,,,-99.99,,2013-09-06 07:00:00,
2013-09-06 02:42:00,82.0,78.0,30.04,East,80,9.0,10.0,86,-99.99,,,-99.99,,2013-09-06 07:42:00,
2013-09-06 02:52:00,82.0,78.0,30.04,East,80,9.0,10.0,86,-99.99,,,-99.99,,2013-09-06 07:52:00,
2013-09-06 03:00:00,82.0,77.0,30.04,ENE,60,7.0,8.0,83,-99.99,,,-99.99,,2013-09-06 08:00:00,
2013-09-06 03:42:00,82.0,77.0,30.04,ENE,60,7.0,8.0,83,-99.99,,,-99.99,,2013-09-06 08:42:00,
2013-09-06 03:52:00,82.0,77.0,30.04,ENE,60,7.0,8.0,83,-99.99,,,-99.99,,2013-09-06 08:52:00,
2013-09-06 04:00:00,82.0,76.0,30.03,North,10,7.0,8.0,83,-99.99,,,-99.99,,2013-09-06 09:00:00,
2013-09-06 04:43:00,82.0,76.0,30.03,North,10,7.0,8.0,83,-99.99,,,-99.99,,2013-09-06 09:43:00,
2013-09-06 04:53:00,82.0,76.0,30.03,North,10,7.0,8.0,83,-99.99,,,-99.99,,2013-09-06 09:53:00,
2013-09-06 05:00:00,82.0,76.0,30.04,NNE,30,9.0,10.0,83,-99.99,,,-99.99,,2013-09-06 10:00:00,
2013-09-06 05:42:00,82.0,76.0,30.04,NNE,30,9.0,10.0,83,-99.99,,,-99.99,,2013-09-06 10:42:00,
2013-09-06 05:53:00,82.0,76.0,30.04,NNE,30,9.0,10.0,83,-99.99,,,-99.99,,2013-09-06 10:53:00,
2013-09-06 06:00:00,82.0,76.0,30.05,NNE,20,7.0,8.0,79,-99.99,,,-99.99,,2013-09-06 11:00:00,
2013-09-06 06:42:00,82.0,76.0,30.05,NNE,20,7.0,8.0,79,-99.99,,,-99.99,,2013-09-06 11:42:00,
2013-09-06 06:51:00,82.0,76.0,30.05,NNE,20,7.0,8.0,79,-99.99,,,-99.99,,2013-09-06 11:51:00,
2013-09-06 07:00:00,82.0,77.0,30.07,North,10,9.0,10.0,85,-99.99,,,-99.99,,2013-09-06 12:00:00,
2013-09-06 07:42:00,82.0,77.0,30.07,North,10,9.0,10.0,85,-99.99,,,-99.99,,2013-09-06 12:42:00,
2013-09-06 07:52:00,82.0,77.0,30.07,North,10,9.0,10.0,85,-99.99,,,-99.99,,2013-09-06 12:52:00,
2013-09-06 08:00:00,82.0,73.0,30.08,NE,40,10.0,11.0,74,-99.99,,,-99.99,,2013-09-06 13:00:00,
2013-09-06 08:42:00,82.0,73.0,30.08,NE,40,10.0,11.0,74,-99.99,,,-99.99,,2013-09-06 13:42:00,
2013-09-06 08:52:00,82.0,73.0,30.08,NE,40,10.0,11.0,74,-99.99,,,-99.99,,2013-09-06 13:52:00,
2013-09-06 09:00:00,81.0,73.0,30.08,NE,40,10.0,11.0,74,-99.99,,,-99.99,,2013-09-06 14:00:00,
2013-09-06 09:42:00,81.0,73.0,30.08,NE,40,10.0,11.0,74,-99.99,,,-99.99,,2013-09-06 14:42:00,
2013-09-06 09:52:00,81.0,73.0,30.08,NE,40,10.0,11.0,74,-99.99,,,-99.99,,2013-09-06 14:52:00,
2013-09-06 10:00:00,81.0,73.0,30.09,NE,50,8.0,9.0,76,-99.99,,,-99.99,,2013-09-06 15:00:00,
2013-09-06 10:43:00,81.0,73.0,30.09,NE,50,8.0,9.0,76,-99.99,,,-99.99,,2013-09-06 15:43:00,
2013-09-06 10:53:00,81.0,73.0,30.09,NE,50,8.0,9.0,76,-99.99,,,-99.99,,2013-09-06 15:53:00,
2013-09-06 11:00:00,83.0,73.0,30.09,ENE,60,5.0,6.0,71,-99.99,,,-99.99,,2013-09-06 16:00:00,
2013-09-06 11:42:00,83.0,73.0,30.09,ENE,60,5.0,6.0,71,-99.99,,,-99.99,,2013-09-06 16:42:00,
2013-09-06 11:53:00,83.0,73.0,30.09,ENE,60,5.0,6.0,71,-99.99,,,-99.99,,2013-09-06 16:53:00,
2013-09-06 12:00:00,84.0,73.0,30.09,NE,50,3.0,5.0,68,-99.99,,,-99.99,,2013-09-06 17:00:00,
2013-09-06 12:43:00,84.0,73.0,30.09,NE,50,3.0,5.0,68,-99.99,,,-99.99,,2013-09-06 17:43:00,
2013-09-06 12:53:00,84.0,73.0,30.09,NE,50,3.0,5.0,68,-99.99,,,-99.99,,2013-09-06 17:53:00,
2013-09-06 13:00:00,85.0,71.0,30.07,NNE,30,3.0,3.0,63,-99.99,,,-99.99,,2013-09-06 18:00:00,
2013-09-06 13:42:00,85.0,71.0,30.07,NNE,30,3.0,3.0,63,-99.99,,,-99.99,,2013-09-06 18:42:00,
2013-09-06 13:52:00,85.0,71.0,30.07,NNE,30,3.0,3.0,63,-99.99,,,-99.99,,2013-09-06 18:52:00,
2013-09-06 14:00:00,85.0,72.0,30.05,SE,140,6.0,7.0,63,-99.99,,,-99.99,,2013-09-06 19:00:00,
2013-09-06 14:42:00,85.0,72.0,30.05,SE,140,6.0,7.0,63,-99.99,,,-99.99,,2013-09-06 19:42:00,
2013-09-06 14:52:00,85.0,72.0,30.05,SE,140,6.0,7.0,63,-99.99,,,-99.99,,2013-09-06 19:52:00,
2013-09-06 15:00:00,85.0,71.0,30.03,SE,130,6.0,8.0,62,-99.99,,,-99.99,,2013-09-06 20:00:00,
2013-09-06 15:42:00,85.0,71.0,30.03,SE,130,6.0,8.0,62,-99.99,,,-99.99,,2013-09-06 20:42:00,
2013-09-06 15:52:00,85.0,71.0,30.03,SE,130,6.0,8.0,62,-99.99,,,-99.99,,2013-09-06 20:52:00,
2013-09-06 16:00:00,85.0,72.0,30.01,SE,130,3.0,5.0,63,-99.99,,,-99.99,,2013-09-06 21:00:00,
2013-09-06 16:43:00,85.0,72.0,30.01,SE,130,3.0,5.0,63,-99.99,,,-99.99,,2013-09-06 21:43:00,
2013-09-06 16:54:00,85.0,72.0,30.01,SE,130,3.0,5.0,63,-99.99,,,-99.99,,2013-09-06 21:54:00,
2013-09-06 17:00:00,86.0,72.0,30.00,SSE,150,2.0,3.0,63,-99.99,,,-99.99,,2013-09-06 22:00:00,
2013-09-06 17:44:00,86.0,72.0,30.00,SSE,150,2.0,3.0,63,-99.99,,,-99.99,,2013-09-06 22:44:00,
2013-09-06 17:53:00,86.0,72.0,30.00,SSE,150,2.0,3.0,63,-99.99,,,-99.99,,2013-09-06 22:53:00,
2013-09-06 18:00:00,86.0,73.0,29.99,SSE,150,3.0,3.0,65,-99.99,,,-99.99,,2013-09-06 23:00:00,
2013-09-06 18:42:00,86.0,73.0,29.99,SSE,150,3.0,3.0,65,-99.99,,,-99.99,,2013-09-06 23:42:00,
2013-09-06 18:52:00,86.0,73.0,29.99,SSE,150,3.0,3.0,65,-99.99,,,-99.99,,2013-09-06 23:52:00,
2013-09-06 19:00:00,85.0,73.0,29.99,SE,140,5.0,5.0,66,-99.99,,,-99.99,,2013-09-07 00:00:00,
2013-09-06 19:42:00,85.0,73.0,29.99,SE,140,5.0,5.0,66,-99.99,,,-99.99,,2013-09-07 00:42:00,
2013-09-06 19:52:00,85.0,73.0,29.99,SE,140,5.0,5.0,66,-99.99,,,-99.99,,2013-09-07 00:52:00,
2013-09-06 20:00:00,85.0,74.0,30.00,South,170,5.0,6.0,70,-99.99,,,-99.99,,2013-09-07 01:00:00,
2013-09-06 20:42:00,85.0,74.0,30.00,South,170,5.0,6.0,70,-99.99,,,-99.99,,2013-09-07 01:42:00,
2013-09-06 20:53:00,85.0,74.0,30.00,South,170,5.0,6.0,70,-99.99,,,-99.99,,2013-09-07 01:53:00,
2013-09-06 21:00:00,85.0,74.0,30.01,South,180,3.0,5.0,70,-99.99,,,-99.99,,2013-09-07 02:00:00,
2013-09-06 21:42:00,85.0,74.0,30.01,South,180,3.0,5.0,70,-99.99,,,-99.99,,2013-09-07 02:42:00,
2013-09-06 21:52:00,85.0,74.0,30.01,South,180,3.0,5.0,70,-99.99,,,-99.99,,2013-09-07 02:52:00,
2013-09-06 22:00:00,85.0,74.0,30.01,North,0,0.0,0.0,70,-99.99,,,-99.99,,2013-09-07 03:00:00,
2013-09-06 22:44:00,85.0,74.0,30.01,North,0,0.0,0.0,70,-99.99,,,-99.99,,2013-09-07 03:44:00,
2013-09-06 22:54:00,85.0,74.0,30.01,North,0,0.0,0.0,70,-99.99,,,-99.99,,2013-09-07 03:54:00,
2013-09-06 23:00:00,84.0,75.0,30.01,North,0,0.0,1.0,75,-99.99,,,-99.99,,2013-09-07 04:00:00,
2013-09-06 23:43:00,84.0,75.0,30.01,North,0,0.0,1.0,75,-99.99,,,-99.99,,2013-09-07 04:43:00,
2013-09-06 23:54:00,84.0,75.0,30.01,North,0,0.0,1.0,75,-99.99,,,-99.99,,2013-09-07 04:54:00,